GMT,Max TemperatureF,Mean TemperatureF,Min TemperatureF,Max Dew PointF,MeanDew PointF,Min DewpointF,Max Humidity, Mean Humidity, Min Humidity, Max Sea Level PressureIn, Mean Sea Level PressureIn, Min Sea Level PressureIn, Max VisibilityMiles, Mean VisibilityMiles, Min VisibilityMiles, Max Wind SpeedMPH, Mean Wind SpeedMPH, Max Gust SpeedMPH,PrecipitationIn, CloudCover, Events, WindDirDegrees
2013-1-1,44,40,35,41,36,33,93,82,64,30.00,29.71,29.47,18,8,6,23,13,,0.00,3,,263
2013-1-2,51,44,37,49,42,36,100,90,81,30.26,30.15,30.01,17,7,4,21,12,,0.02,6,Rain,246
2013-1-3,52,49,46,50,48,45,100,93,87,30.57,30.43,30.24,19,6,4,22,18,,0.00,4,,253
2013-1-4,50,47,44,46,45,42,100,88,74,30.60,30.56,30.54,19,7,3,21,15,,0.00,6,,259
2013-1-5,52,48,44,46,45,42,100,90,77,30.57,30.50,30.45,19,6,3,20,10,,0.00,6,,237
2013-1-6,49,44,39,48,44,39,100,94,88,30.49,30.42,30.33,9,4,0,10,7,,0.01,6,Fog,226
2013-1-7,48,46,44,45,44,43,100,92,84,30.33,30.24,30.18,16,6,4,14,10,,0.00,6,,206
2013-1-8,51,48,44,49,46,43,100,92,84,30.21,30.17,30.15,10,6,1,15,11,,0.08,6,Rain,230
2013-1-9,48,39,30,46,37,30,100,93,81,30.20,30.14,30.06,7,4,0,9,7,,0.00,5,Rain-Snow,309
2013-1-10,34,32,30,35,33,29,100,99,93,30.04,29.97,29.92,2,0,0,13,8,,0.01,7,Fog-Snow,275
2013-1-11,39,36,33,38,36,34,100,97,93,30.09,30.03,29.98,5,2,1,8,6,,0.00,7,Rain,223
2013-1-12,37,34,30,36,31,26,100,86,75,30.05,29.96,29.92,11,6,0,12,8,,0.00,5,Fog,75
2013-1-13,36,33,30,30,29,27,96,87,61,30.17,30.11,30.04,19,6,4,8,7,,0.00,6,Snow,345
2013-1-14,35,32,30,32,30,28,100,92,81,30.07,29.79,29.59,14,5,0,15,9,,0.03,6,Rain-Snow,232
2013-1-15,33,29,24,32,29,24,100,93,82,29.89,29.81,29.62,9,5,1,15,11,,0.04,4,Fog-Rain-Snow,327
2013-1-16,25,22,19,25,22,17,100,95,90,30.05,29.93,29.83,4,1,0,7,3,,0.00,5,Fog-Snow,346
2013-1-17,30,22,15,30,23,14,100,94,86,30.10,30.02,29.89,6,4,2,6,1,,0.01,6,,124
2013-1-18,30,28,26,29,27,26,100,93,86,29.86,29.64,29.47,5,2,1,15,9,,0.00,6,Snow,106
2013-1-19,31,30,30,29,28,25,93,87,73,29.57,29.50,29.44,10,6,2,15,12,,0.01,8,Snow,60
2013-1-20,32,31,30,31,28,25,100,90,76,29.52,29.40,29.27,11,4,0,20,11,,0.01,7,Snow,52
2013-1-21,30,29,28,30,28,27,100,97,91,29.51,29.35,29.24,3,2,1,7,4,,0.04,7,Rain-Snow,120
2013-1-22,33,26,19,32,28,18,100,97,91,29.78,29.62,29.50,4,1,0,10,5,,0.02,6,Fog-Snow,70
2013-1-23,32,32,31,30,29,27,93,86,79,29.88,29.80,29.77,6,4,3,9,8,,0.02,8,Snow,66
2013-1-24,33,32,30,29,28,28,93,88,75,30.15,30.04,29.86,10,5,3,7,4,,0.04,8,,354
2013-1-25,33,28,23,32,27,21,100,88,70,30.12,29.88,29.53,12,5,1,17,8,,0.02,7,Snow,167
2013-1-26,43,38,32,42,35,32,100,91,70,29.77,29.63,29.44,19,7,0,20,13,,0.35,6,Rain-Snow,215
2013-1-27,49,43,37,48,37,31,100,76,42,29.54,29.34,29.15,16,6,4,30,21,38,0.01,4,Rain,222
2013-1-28,50,42,33,46,38,32,93,81,67,29.73,29.55,29.36,12,6,4,31,20,47,0.04,4,Rain-Snow,215
2013-1-29,57,50,44,53,47,41,94,86,66,29.57,29.49,29.42,16,6,3,30,20,45,0.08,5,Rain,218
2013-1-30,51,46,42,48,39,32,94,72,38,29.94,29.64,29.44,19,7,5,33,20,56,0.00,5,Rain,245
2013-1-31,48,45,42,43,38,35,93,72,50,29.89,29.75,29.65,18,8,4,32,21,45,0.02,4,Rain,240